| time (UTC) | temp C | wind direction | speed KPH | gust KPH | rain 1hr cm | rain 24hr cm | rain mn cm | humidity % | barometer mb |
| 20260507081554 | 12 | 287 | 1.6 | 9.7 | 0.30 | 0.56 | 0.30 | 95 | 1006.2 |
| 20260507080117 | 12 | 298 | 1.6 | 11.3 | 0.15 | 0.41 | 0.15 | 95 | 1006.3 |
| 20260507074558 | 13 | 309 | 0.0 | 6.4 | 0.00 | 0.25 | 0.00 | 96 | 1005.8 |
| 20260507073105 | 13 | 0 | 0.0 | 1.6 | 0.00 | 0.25 | 0.00 | 96 | 1005.1 |
| 20260507071556 | 13 | 272 | 0.0 | 6.4 | 0.00 | 0.25 | 0.00 | 96 | 1005.2 |
| 20260507070056 | 13 | 0 | 0.0 | 1.6 | 0.00 | 0.25 | 0.00 | 96 | 1005.3 |
| 20260507064600 | 13 | 0 | 0.0 | 1.6 | 0.00 | 0.25 | 0.00 | 96 | 1005.3 |
| 20260507063105 | 13 | 0 | 0.0 | 3.2 | 0.00 | 0.25 | 0.00 | 96 | 1005.3 |
| 20260507061558 | 13 | 192 | 1.6 | 4.8 | 0.00 | 0.25 | 0.00 | 96 | 1005.6 |
| 20260507060056 | 13 | 0 | 1.6 | 6.4 | 0.00 | 0.25 | 0.00 | 96 | 1005.8 |
| 20260507054557 | 13 | 292 | 0.0 | 8.0 | 0.00 | 0.25 | 0.00 | 96 | 1005.7 |
| 20260507053108 | 13 | 259 | 0.0 | 6.4 | 0.00 | 0.25 | 0.00 | 96 | 1005.8 |
| 20260507051557 | 13 | 247 | 3.2 | 9.7 | 0.00 | 0.25 | 0.00 | 96 | 1006.0 |
| 20260507050058 | 13 | 319 | 0.0 | 12.9 | 0.00 | 0.25 | 0.00 | 96 | 1006.5 |
| 20260507044608 | 13 | 313 | 1.6 | 9.7 | 0.00 | 0.25 | 0.00 | 96 | 1006.1 |
| 20260507043058 | 13 | 217 | 3.2 | 11.3 | 0.00 | 0.25 | 0.00 | 96 | 1006.1 |
| 20260507041559 | 13 | 256 | 1.6 | 12.9 | 0.00 | 0.25 | 0.00 | 96 | 1006.2 |
| 20260507034559 | 13 | 290 | 1.6 | 17.7 | 0.00 | 0.25 | 0.25 | 95 | 1006.5 |
| 20260507033109 | 13 | 211 | 3.2 | 12.9 | 0.00 | 0.25 | 0.25 | 95 | 1006.5 |
| 20260507031559 | 13 | 232 | 4.8 | 17.7 | 0.00 | 0.25 | 0.25 | 95 | 1006.4 |
| 20260507024605 | 13 | 140 | 4.8 | 19.3 | 0.00 | 0.25 | 0.25 | 95 | 1005.9 |
| 20260507023054 | 13 | 167 | 6.4 | 16.1 | 0.00 | 0.25 | 0.25 | 95 | 1006.1 |
| 20260507021556 | 13 | 0 | 4.8 | 12.9 | 0.00 | 0.25 | 0.25 | 95 | 1006.2 |
| 20260507020112 | 13 | 180 | 6.4 | 17.7 | 0.00 | 0.25 | 0.25 | 95 | 1006.5 |
| 20260507014605 | 13 | 257 | 3.2 | 16.1 | 0.00 | 0.25 | 0.25 | 95 | 1006.6 |
| 20260507013058 | 13 | 165 | 4.8 | 16.1 | 0.03 | 0.25 | 0.25 | 95 | 1006.7 |
| 20260507011556 | 13 | 290 | 4.8 | 16.1 | 0.03 | 0.25 | 0.25 | 95 | 1006.9 |
| 20260507004602 | 13 | 259 | 6.4 | 17.7 | 0.05 | 0.25 | 0.25 | 95 | 1006.8 |
| 20260507003055 | 13 | 205 | 4.8 | 27.4 | 0.03 | 0.23 | 0.23 | 94 | 1006.9 |
| 20260507001556 | 13 | 304 | 8.0 | 32.2 | 0.08 | 0.23 | 0.23 | 95 | 1006.7 |
| 20260507000056 | 13 | 346 | 4.8 | 29.0 | 0.13 | 0.23 | 0.23 | 95 | 1006.9 |
| 20260506234555 | 13 | 178 | 6.4 | 16.1 | 0.13 | 0.20 | 0.20 | 94 | 1006.7 |
| 20260506233111 | 13 | 212 | 4.8 | 19.3 | 0.15 | 0.20 | 0.20 | 94 | 1006.8 |
| 20260506231600 | 13 | 204 | 6.4 | 17.7 | 0.10 | 0.15 | 0.15 | 93 | 1007.0 |
| 20260506230056 | 14 | 179 | 4.8 | 19.3 | 0.05 | 0.10 | 0.10 | 93 | 1006.7 |
| 20260506224600 | 14 | 257 | 4.8 | 22.5 | 0.03 | 0.08 | 0.08 | 92 | 1006.8 |
| 20260506223057 | 15 | 231 | 8.0 | 25.7 | 0.00 | 0.05 | 0.05 | 91 | 1007.3 |
| 20260506221611 | 15 | 156 | 4.8 | 32.2 | 0.00 | 0.05 | 0.05 | 91 | 1007.2 |
| 20260506220056 | 15 | 173 | 4.8 | 19.3 | 0.00 | 0.05 | 0.05 | 91 | 1007.2 |
| 20260506214557 | 15 | 243 | 3.2 | 17.7 | 0.03 | 0.05 | 0.05 | 91 | 1007.3 |
| 20260506213115 | 15 | 138 | 3.2 | 22.5 | 0.03 | 0.05 | 0.05 | 89 | 1007.3 |
| 20260506211558 | 16 | 233 | 4.8 | 19.3 | 0.03 | 0.05 | 0.05 | 88 | 1007.8 |
| 20260506210058 | 15 | 212 | 6.4 | 29.0 | 0.05 | 0.05 | 0.05 | 88 | 1007.5 |
| 20260506204556 | 15 | 194 | 6.4 | 30.6 | 0.03 | 0.03 | 0.03 | 89 | 1007.6 |
| 20260506203059 | 15 | 304 | 8.0 | 22.5 | 0.03 | 0.03 | 0.03 | 89 | 1007.8 |
| 20260506201555 | 15 | 158 | 6.4 | 24.1 | 0.03 | 0.03 | 0.03 | 88 | 1007.9 |
| 20260506200055 | 16 | 274 | 6.4 | 22.5 | 0.00 | 0.00 | 0.00 | 84 | 1008.2 |
| 20260506194602 | 17 | 171 | 8.0 | 20.9 | 0.00 | 0.00 | 0.00 | 79 | 1008.3 |
| 20260506193058 | 17 | 290 | 9.7 | 32.2 | 0.00 | 0.00 | 0.00 | 78 | 1008.2 |
| 20260506191556 | 17 | 238 | 11.3 | 37.0 | 0.00 | 0.00 | 0.00 | 77 | 1008.3 |
| 20260506190058 | 17 | 241 | 12.9 | 32.2 | 0.00 | 0.00 | 0.00 | 77 | 1007.9 |
| 20260506184556 | 17 | 213 | 14.5 | 40.2 | 0.00 | 0.00 | 0.00 | 76 | 1008.1 |
| 20260506183104 | 18 | 288 | 6.4 | 29.0 | 0.00 | 0.00 | 0.00 | 76 | 1008.4 |
| 20260506181621 | 18 | 116 | 11.3 | 40.2 | 0.00 | 0.00 | 0.00 | 75 | 1008.8 |
| 20260506180058 | 18 | 155 | 9.7 | 37.0 | 0.00 | 0.00 | 0.00 | 73 | 1009.2 |
| 20260506174559 | 19 | 217 | 11.3 | 37.0 | 0.00 | 0.00 | 0.00 | 72 | 1009.8 |
| 20260506173108 | 19 | 184 | 11.3 | 40.2 | 0.00 | 0.00 | 0.00 | 73 | 1009.3 |
| 20260506171602 | 19 | 244 | 11.3 | 37.0 | 0.00 | 0.00 | 0.00 | 72 | 1009.3 |
| 20260506170058 | 19 | 220 | 16.1 | 41.8 | 0.00 | 0.00 | 0.00 | 74 | 1009.4 |
| 20260506164607 | 19 | 182 | 12.9 | 35.4 | 0.00 | 0.00 | 0.00 | 72 | 1009.9 |
| 20260506163058 | 19 | 209 | 11.3 | 30.6 | 0.00 | 0.00 | 0.00 | 72 | 1009.8 |
| 20260506161557 | 19 | 171 | 14.5 | 43.5 | 0.00 | 0.00 | 0.00 | 71 | 1010.0 |
| 20260506160105 | 20 | 271 | 11.3 | 40.2 | 0.00 | 0.00 | 0.00 | 71 | 1010.1 |
| 20260506154602 | 20 | 297 | 12.9 | 40.2 | 0.00 | 0.00 | 0.00 | 71 | 1010.5 |
| 20260506153112 | 19 | 231 | 8.0 | 35.4 | 0.00 | 0.00 | 0.00 | 72 | 1010.4 |
| 20260506151556 | 20 | 206 | 9.7 | 25.7 | 0.00 | 0.00 | 0.00 | 71 | 1010.7 |
| 20260506144559 | 20 | 171 | 6.4 | 20.9 | 0.00 | 0.00 | 0.00 | 70 | 1010.3 |
| 20260506143059 | 20 | 175 | 8.0 | 29.0 | 0.00 | 0.00 | 0.00 | 70 | 1010.3 |
| 20260506141555 | 20 | 141 | 9.7 | 32.2 | 0.00 | 0.00 | 0.00 | 70 | 1010.2 |
| 20260506134556 | 18 | 270 | 9.7 | 32.2 | 0.00 | 0.00 | 0.00 | 74 | 1011.0 |
| 20260506133056 | 18 | 279 | 9.7 | 25.7 | 0.00 | 0.00 | 0.00 | 76 | 1011.0 |
| 20260506131556 | 17 | 202 | 8.0 | 16.1 | 0.00 | 0.00 | 0.00 | 78 | 1010.8 |
| 20260506130058 | 17 | 286 | 9.7 | 17.7 | 0.00 | 0.00 | 0.00 | 79 | 1010.9 |
| 20260506124601 | 16 | 317 | 9.7 | 30.6 | 0.00 | 0.00 | 0.00 | 81 | 1010.7 |
| 20260506123057 | 16 | 234 | 9.7 | 22.5 | 0.00 | 0.00 | 0.00 | 83 | 1010.9 |
| 20260506121556 | 15 | 234 | 6.4 | 25.7 | 0.00 | 0.00 | 0.00 | 84 | 1011.3 |
| 20260506120058 | 15 | 185 | 8.0 | 27.4 | 0.00 | 0.00 | 0.00 | 84 | 1011.3 |
| 20260506114559 | 15 | 301 | 12.9 | 24.1 | 0.00 | 0.00 | 0.00 | 85 | 1011.5 |
| 20260506113058 | 15 | 185 | 6.4 | 22.5 | 0.00 | 0.00 | 0.00 | 86 | 1011.5 |
| 20260506111555 | 15 | 185 | 8.0 | 24.1 | 0.00 | 0.00 | 0.00 | 87 | 1011.5 |
| 20260506110058 | 15 | 241 | 6.4 | 24.1 | 0.00 | 0.00 | 0.00 | 87 | 1011.5 |
| 20260506104600 | 14 | 239 | 4.8 | 16.1 | 0.00 | 0.00 | 0.00 | 87 | 1011.4 |
| 20260506103057 | 14 | 231 | 8.0 | 19.3 | 0.00 | 0.00 | 0.00 | 87 | 1011.4 |
| 20260506101555 | 15 | 232 | 4.8 | 20.9 | 0.00 | 0.00 | 0.00 | 87 | 1011.3 |
| 20260506100056 | 14 | 184 | 6.4 | 24.1 | 0.00 | 0.00 | 0.00 | 87 | 1011.1 |
| 20260506094555 | 14 | 339 | 8.0 | 22.5 | 0.00 | 0.00 | 0.00 | 87 | 1011.2 |
| 20260506093057 | 14 | 210 | 6.4 | 20.9 | 0.00 | 0.00 | 0.00 | 87 | 1011.1 |
| 20260506091600 | 14 | 207 | 8.0 | 24.1 | 0.00 | 0.00 | 0.00 | 87 | 1011.2 |
| 20260506090100 | 14 | 103 | 6.4 | 17.7 | 0.00 | 0.00 | 0.00 | 87 | 1011.4 |
| 20260506084605 | 14 | 188 | 6.4 | 30.6 | 0.00 | 0.00 | 0.00 | 86 | 1011.4 |
| 20260506083055 | 15 | 183 | 6.4 | 22.5 | 0.00 | 0.00 | 0.00 | 86 | 1011.4 |